createdAt,value
2022-09-25T00:01:15.746Z,17.52
2022-09-25T00:03:48.239Z,24.67
2022-09-25T00:06:19.670Z,26.55
2022-09-25T00:08:47.553Z,13.35
2022-09-25T00:11:17.306Z,16.13
2022-09-25T00:13:45.948Z,17.65
2022-09-25T00:16:16.721Z,14.23
2022-09-25T00:19:02.923Z,27.10
2022-09-25T00:21:31.709Z,16.10
2022-09-25T00:24:03.810Z,16.73
2022-09-25T00:26:34.176Z,15.90
2022-09-25T00:29:01.649Z,26.60
2022-09-25T00:31:30.484Z,15.80
2022-09-25T00:34:02.054Z,27.92
2022-09-25T00:36:31.433Z,17.00
2022-09-25T00:38:59.089Z,14.25
2022-09-25T00:41:27.607Z,15.35
2022-09-25T00:43:57.398Z,16.00
2022-09-25T00:46:40.513Z,21.85
2022-09-25T00:49:24.661Z,23.55
2022-09-25T00:52:00.620Z,17.88
2022-09-25T00:54:36.396Z,14.23
2022-09-25T00:57:07.851Z,13.93
2022-09-25T00:59:39.175Z,16.63
2022-09-25T01:02:10.130Z,17.15
2022-09-25T01:04:38.185Z,13.68
2022-09-25T01:07:06.020Z,16.52
2022-09-25T01:09:33.674Z,19.50
2022-09-25T01:12:01.095Z,17.55
2022-09-25T01:14:28.740Z,12.85
2022-09-25T01:17:07.565Z,14.63
2022-09-25T01:19:43.909Z,16.70
2022-09-25T01:22:34.255Z,28.98
2022-09-25T01:25:39.606Z,21.63
2022-09-25T01:28:31.844Z,42.03
2022-09-25T01:31:04.249Z,32.65
2022-09-25T01:33:42.663Z,65.38
2022-09-25T01:36:24.069Z,19.55
2022-09-25T01:38:55.705Z,17.90
2022-09-25T01:41:29.495Z,16.40
2022-09-25T01:44:19.499Z,16.30
2022-09-25T01:46:52.671Z,14.23
2022-09-25T01:49:33.418Z,17.08
2022-09-25T01:52:05.215Z,37.30
2022-09-25T01:54:40.140Z,63.20
2022-09-25T01:57:57.278Z,28.45
2022-09-25T02:00:27.865Z,20.60
2022-09-25T02:03:07.861Z,22.60
2022-09-25T02:05:46.421Z,22.40
2022-09-25T02:08:23.032Z,17.73
2022-09-25T02:11:03.626Z,20.85
2022-09-25T02:13:43.337Z,14.30
2022-09-25T02:16:16.754Z,22.80
2022-09-25T02:19:02.987Z,22.95
2022-09-25T02:21:30.153Z,14.00
2022-09-25T02:24:21.296Z,18.90
2022-09-25T02:26:49.790Z,15.15
2022-09-25T02:29:18.497Z,17.08
2022-09-25T02:31:54.035Z,17.13
2022-09-25T02:34:22.299Z,14.13
2022-09-25T02:36:49.836Z,16.67
2022-09-25T02:39:23.656Z,18.15
2022-09-25T02:42:05.962Z,15.60
2022-09-25T02:44:39.290Z,14.50
2022-09-25T02:47:14.202Z,14.98
2022-09-25T02:50:08.160Z,13.55
2022-09-25T02:52:51.081Z,14.10
2022-09-25T02:55:44.064Z,11.25
2022-09-25T02:58:32.186Z,12.98
2022-09-25T03:01:01.799Z,13.63
2022-09-25T03:03:31.245Z,12.88
2022-09-25T03:05:59.715Z,15.73
2022-09-25T03:08:41.769Z,12.50
2022-09-25T03:11:10.231Z,11.48
2022-09-25T03:13:37.737Z,11.63
2022-09-25T03:16:34.626Z,13.23
2022-09-25T03:19:03.497Z,11.00
2022-09-25T03:21:31.007Z,13.48
2022-09-25T03:23:58.187Z,18.10
2022-09-25T03:26:27.294Z,30.10
2022-09-25T03:28:54.723Z,31.10
2022-09-25T03:31:22.752Z,20.75
2022-09-25T03:33:50.244Z,13.82
2022-09-25T03:36:20.580Z,12.95
2022-09-25T03:38:52.208Z,11.88
2022-09-25T03:41:21.944Z,12.38
2022-09-25T03:43:51.932Z,12.20
2022-09-25T03:46:22.802Z,14.10
2022-09-25T03:48:50.370Z,17.40
2022-09-25T03:51:17.409Z,16.27
2022-09-25T03:53:44.741Z,23.05
2022-09-25T03:56:14.754Z,15.27
2022-09-25T03:58:42.235Z,13.48
2022-09-25T04:01:11.133Z,17.20
2022-09-25T04:03:39.484Z,13.65
2022-09-25T04:06:08.248Z,17.45
2022-09-25T04:08:36.359Z,18.67
2022-09-25T04:11:04.113Z,15.15
2022-09-25T04:13:36.232Z,23.83
2022-09-25T04:16:05.826Z,15.77
2022-09-25T04:18:33.777Z,16.13
2022-09-25T04:21:06.878Z,16.08
2022-09-25T04:23:35.341Z,16.73
2022-09-25T04:26:02.819Z,26.65
2022-09-25T04:28:32.256Z,19.08
2022-09-25T04:30:59.813Z,14.73
2022-09-25T04:33:45.714Z,27.25
2022-09-25T04:36:14.003Z,17.75
2022-09-25T04:38:41.401Z,18.80
2022-09-25T04:41:08.773Z,22.88
2022-09-25T04:43:36.700Z,26.95
2022-09-25T04:46:09.616Z,17.75
2022-09-25T04:48:37.413Z,17.80
2022-09-25T04:51:05.235Z,16.73
2022-09-25T04:53:35.622Z,15.00
2022-09-25T04:56:05.393Z,15.57
2022-09-25T04:58:32.615Z,16.70
2022-09-25T05:01:09.024Z,22.55
2022-09-25T05:03:37.593Z,16.92
2022-09-25T05:06:04.802Z,17.13
2022-09-25T05:08:31.879Z,18.33
2022-09-25T05:10:59.096Z,23.83
2022-09-25T05:13:26.239Z,31.55
2022-09-25T05:15:55.133Z,39.88
2022-09-25T05:18:24.127Z,28.05
2022-09-25T05:20:53.477Z,21.52
2022-09-25T05:23:21.421Z,18.20
2022-09-25T05:25:53.293Z,15.90
2022-09-25T05:28:20.766Z,18.83
2022-09-25T05:30:48.400Z,17.05
2022-09-25T05:33:15.841Z,17.83
2022-09-25T05:35:43.257Z,19.45
2022-09-25T05:38:10.788Z,17.88
2022-09-25T05:40:39.382Z,26.65
2022-09-25T05:43:06.973Z,19.55
2022-09-25T05:45:35.650Z,20.95
2022-09-25T05:48:07.646Z,28.15
2022-09-25T05:50:35.216Z,22.85
2022-09-25T05:53:05.035Z,17.90
2022-09-25T05:55:32.436Z,25.08
2022-09-25T05:58:04.008Z,20.90
2022-09-25T06:00:33.772Z,23.48
2022-09-25T06:03:01.884Z,23.88
2022-09-25T06:05:30.393Z,29.08
2022-09-25T06:07:57.597Z,28.05
2022-09-25T06:10:27.602Z,20.38
2022-09-25T06:12:59.126Z,18.48
2022-09-25T06:15:37.298Z,17.63
2022-09-25T06:18:06.707Z,19.95
2022-09-25T06:20:35.817Z,18.23
2022-09-25T06:23:02.864Z,17.88
2022-09-25T06:25:36.519Z,20.98
2022-09-25T06:28:03.953Z,28.52
2022-09-25T06:30:34.506Z,27.80
2022-09-25T06:33:04.411Z,34.97
2022-09-25T06:35:32.053Z,26.65
2022-09-25T06:38:00.773Z,37.35
2022-09-25T06:40:31.316Z,36.72
2022-09-25T06:43:00.233Z,29.40
2022-09-25T06:45:29.263Z,23.83
2022-09-25T06:48:08.804Z,18.10
2022-09-25T06:50:44.884Z,18.80
2022-09-25T06:53:13.035Z,25.98
2022-09-25T06:55:41.494Z,21.00
2022-09-25T06:58:16.989Z,22.70
2022-09-25T07:00:52.356Z,17.88
2022-09-25T07:03:37.971Z,17.40
2022-09-25T07:06:07.545Z,17.35
2022-09-25T07:08:36.190Z,13.23
2022-09-25T07:11:03.586Z,16.27
2022-09-25T07:13:33.503Z,14.60
2022-09-25T07:16:10.382Z,18.30
2022-09-25T07:18:37.907Z,17.42
2022-09-25T07:21:07.501Z,16.45
2022-09-25T07:23:35.387Z,17.55
2022-09-25T07:26:08.141Z,15.05
2022-09-25T07:28:36.258Z,20.85
2022-09-25T07:31:11.914Z,23.67
2022-09-25T07:33:39.184Z,22.10
2022-09-25T07:36:08.411Z,16.98
2022-09-25T07:38:37.079Z,16.35
2022-09-25T07:41:11.261Z,15.63
2022-09-25T07:43:38.780Z,13.65
2022-09-25T07:46:06.919Z,16.13
2022-09-25T07:48:34.206Z,16.77
2022-09-25T07:51:02.606Z,28.02
2022-09-25T07:53:30.172Z,20.35
2022-09-25T07:56:06.268Z,15.77
2022-09-25T07:58:35.558Z,14.93
2022-09-25T08:01:05.199Z,14.40
2022-09-25T08:03:33.243Z,16.20
2022-09-25T08:06:02.569Z,19.35
2022-09-25T08:08:30.499Z,16.13
2022-09-25T08:11:02.866Z,17.95
2022-09-25T08:13:32.741Z,16.88
2022-09-25T08:16:05.926Z,19.27
2022-09-25T08:18:33.431Z,22.08
2022-09-25T08:21:04.486Z,14.18
2022-09-25T08:23:33.414Z,17.77
2022-09-25T08:26:02.034Z,14.50
2022-09-25T08:28:29.400Z,14.95
2022-09-25T08:31:04.062Z,17.85
2022-09-25T08:33:32.679Z,13.07
2022-09-25T08:36:04.828Z,13.77
2022-09-25T08:38:33.421Z,14.98
2022-09-25T08:41:06.257Z,15.90
2022-09-25T08:43:37.860Z,15.35
2022-09-25T08:46:31.583Z,15.10
2022-09-25T08:49:12.890Z,16.23
2022-09-25T08:51:52.381Z,11.23
2022-09-25T08:54:23.756Z,26.88
2022-09-25T08:57:01.657Z,16.00
2022-09-25T08:59:34.701Z,21.85
2022-09-25T09:02:24.829Z,13.30
2022-09-25T09:05:00.794Z,12.77
2022-09-25T09:07:37.441Z,19.88
2022-09-25T09:10:36.345Z,15.45
2022-09-25T09:13:18.840Z,10.70
2022-09-25T09:15:59.185Z,20.13
2022-09-25T09:18:36.375Z,15.93
2022-09-25T09:21:25.610Z,14.23
2022-09-25T09:24:08.770Z,14.45
2022-09-25T09:26:57.604Z,22.15
2022-09-25T09:29:47.958Z,17.00
2022-09-25T09:32:37.034Z,27.42
2022-09-25T09:35:31.197Z,15.23
2022-09-25T09:38:34.397Z,16.30
2022-09-25T09:41:33.724Z,12.75
2022-09-25T09:44:08.168Z,18.00
2022-09-25T09:46:49.813Z,17.08
2022-09-25T09:49:43.833Z,10.88
2022-09-25T09:52:23.548Z,11.55
2022-09-25T09:55:01.050Z,21.65
2022-09-25T09:57:33.099Z,16.63
2022-09-25T10:00:05.362Z,16.52
2022-09-25T10:02:46.464Z,17.60
2022-09-25T10:05:41.752Z,13.13
2022-09-25T10:08:12.164Z,16.33
2022-09-25T10:10:45.243Z,20.48
2022-09-25T10:13:32.729Z,14.98
2022-09-25T10:16:01.988Z,18.75
2022-09-25T10:18:36.817Z,13.35
2022-09-25T10:21:13.752Z,12.80
2022-09-25T10:23:52.621Z,18.88
2022-09-25T10:26:27.899Z,53.78
2022-09-25T10:29:01.356Z,14.73
2022-09-25T10:31:36.137Z,28.13
2022-09-25T10:34:32.061Z,57.80
2022-09-25T10:37:19.709Z,18.85
2022-09-25T10:40:04.958Z,33.92
2022-09-25T10:42:33.277Z,8.85
2022-09-25T10:45:00.476Z,13.38
2022-09-25T10:47:50.240Z,10.35
2022-09-25T10:50:24.805Z,13.25
2022-09-25T10:52:55.518Z,26.42
2022-09-25T10:55:25.367Z,14.00
2022-09-25T10:58:09.342Z,10.77
2022-09-25T11:00:54.544Z,13.02
2022-09-25T11:03:28.768Z,11.05
2022-09-25T11:06:21.128Z,7.88
2022-09-25T11:08:59.373Z,10.00
2022-09-25T11:11:27.372Z,10.50
2022-09-25T11:14:00.216Z,9.00
2022-09-25T11:16:49.272Z,8.65
2022-09-25T11:19:25.970Z,10.35
2022-09-25T11:22:32.965Z,10.77
2022-09-25T11:25:17.755Z,9.07
2022-09-25T11:27:53.771Z,8.43
2022-09-25T11:30:22.725Z,8.88
2022-09-25T11:33:12.899Z,10.32
2022-09-25T11:35:50.620Z,16.05
2022-09-25T11:39:19.450Z,18.98
2022-09-25T11:41:59.999Z,10.05
2022-09-25T11:44:46.163Z,8.35
2022-09-25T11:47:18.088Z,20.73
2022-09-25T11:49:53.402Z,13.68
2022-09-25T11:52:29.321Z,12.07
2022-09-25T11:55:09.033Z,11.20
2022-09-25T11:57:52.828Z,13.52
2022-09-25T12:00:36.179Z,9.68
2022-09-25T12:03:15.904Z,9.90
2022-09-25T12:05:58.759Z,13.25
2022-09-25T12:08:50.778Z,14.35
2022-09-25T12:11:30.229Z,12.10
2022-09-25T12:14:04.441Z,9.05
2022-09-25T12:16:44.098Z,9.93
2022-09-25T12:19:23.890Z,14.48
2022-09-25T12:22:28.431Z,12.77
2022-09-25T12:25:29.100Z,14.57
2022-09-25T12:28:00.817Z,22.45
2022-09-25T12:30:57.238Z,12.98
2022-09-25T12:33:59.886Z,14.18
2022-09-25T12:36:37.745Z,8.70
2022-09-25T12:39:26.507Z,10.00
2022-09-25T12:42:05.029Z,13.85
2022-09-25T12:44:59.422Z,11.30
2022-09-25T12:48:17.447Z,14.10
2022-09-25T12:51:12.005Z,13.85
2022-09-25T12:53:55.006Z,13.55
2022-09-25T12:56:34.204Z,21.02
2022-09-25T12:59:19.190Z,10.27
2022-09-25T13:02:24.953Z,12.25
2022-09-25T13:05:08.912Z,13.55
2022-09-25T13:08:02.948Z,11.85
2022-09-25T13:10:37.840Z,12.25
2022-09-25T13:13:13.373Z,10.07
2022-09-25T13:15:42.603Z,19.02
2022-09-25T13:18:21.141Z,23.88
2022-09-25T13:20:56.722Z,14.90
2022-09-25T13:23:30.232Z,37.33
2022-09-25T13:26:10.645Z,18.33
2022-09-25T13:28:41.822Z,9.95
2022-09-25T13:31:21.235Z,12.13
2022-09-25T13:33:52.389Z,8.00
2022-09-25T13:36:23.602Z,9.27
2022-09-25T13:39:53.894Z,10.70
2022-09-25T13:42:42.557Z,9.00
2022-09-25T13:45:21.865Z,36.38
2022-09-25T13:47:56.760Z,17.38
2022-09-25T13:50:31.217Z,19.35
2022-09-25T13:53:17.835Z,12.60
2022-09-25T13:55:57.347Z,32.95
2022-09-25T13:58:29.555Z,24.60
2022-09-25T14:00:59.254Z,21.63
2022-09-25T14:03:46.108Z,13.02
2022-09-25T14:06:17.602Z,12.00
2022-09-25T14:08:45.673Z,11.65
2022-09-25T14:11:16.351Z,9.90
2022-09-25T14:13:46.589Z,14.73
2022-09-25T14:16:50.627Z,8.15
2022-09-25T14:19:24.284Z,12.25
2022-09-25T14:21:52.211Z,12.10
2022-09-25T14:24:31.053Z,9.73
2022-09-25T14:27:04.026Z,10.38
2022-09-25T14:29:41.079Z,8.80
2022-09-25T14:32:54.616Z,14.05
2022-09-25T14:35:40.758Z,14.18
2022-09-25T14:38:38.823Z,7.75
2022-09-25T14:41:24.156Z,19.77
2022-09-25T14:44:14.564Z,16.02
2022-09-25T14:46:43.197Z,10.00
2022-09-25T14:49:28.220Z,11.85
2022-09-25T14:54:29.481Z,17.45
2022-09-25T14:56:58.433Z,15.63
2022-09-25T14:59:43.618Z,10.43
2022-09-25T15:02:26.790Z,12.95
2022-09-25T15:04:58.219Z,17.98
2022-09-25T15:07:28.862Z,18.05
2022-09-25T15:09:57.947Z,18.90
2022-09-25T15:12:31.232Z,19.70
2022-09-25T15:15:13.266Z,22.38
2022-09-25T15:17:57.916Z,36.83
2022-09-25T15:20:28.655Z,37.90
2022-09-25T15:23:08.824Z,26.52
2022-09-25T15:25:39.829Z,26.98
2022-09-25T15:28:08.265Z,65.45
2022-09-25T15:30:37.686Z,53.13
2022-09-25T15:33:04.954Z,36.85
2022-09-25T15:35:35.636Z,140.93
2022-09-25T15:38:10.900Z,259.52
2022-09-25T15:40:39.316Z,266.50
2022-09-25T15:43:15.030Z,214.75
2022-09-25T15:45:49.955Z,186.80
2022-09-25T15:48:24.783Z,183.38
2022-09-25T15:50:53.460Z,113.07
2022-09-25T15:53:35.998Z,81.05
2022-09-25T15:56:05.543Z,109.32
2022-09-25T15:58:42.592Z,55.22
2022-09-25T16:01:34.135Z,36.97
2022-09-25T16:04:20.569Z,21.92
2022-09-25T16:06:49.969Z,22.60
2022-09-25T16:09:34.291Z,27.02
2022-09-25T16:12:25.590Z,23.70
2022-09-25T16:14:55.133Z,29.85
2022-09-25T16:17:41.752Z,36.80
2022-09-25T16:20:23.912Z,66.65
2022-09-25T16:22:54.361Z,96.28
2022-09-25T16:25:25.986Z,163.73
2022-09-25T16:28:00.287Z,137.00
2022-09-25T16:30:27.983Z,95.88
2022-09-25T16:33:05.082Z,63.30
2022-09-25T16:36:08.965Z,31.15
2022-09-25T16:38:38.238Z,40.50
2022-09-25T16:41:10.413Z,39.85
2022-09-25T16:43:39.504Z,60.35
2022-09-25T16:46:19.539Z,51.40
2022-09-25T16:48:58.853Z,37.05
2022-09-25T16:51:26.925Z,50.53
2022-09-25T16:53:55.087Z,72.05
2022-09-25T16:56:24.396Z,84.80
2022-09-25T16:58:52.011Z,81.82
2022-09-25T17:01:21.906Z,78.30
2022-09-25T17:03:50.075Z,72.88
2022-09-25T17:06:18.516Z,59.20
2022-09-25T17:08:46.142Z,40.13
2022-09-25T17:11:14.086Z,30.60
2022-09-25T17:13:42.836Z,32.80
2022-09-25T17:16:10.368Z,35.03
2022-09-25T17:18:37.777Z,43.28
2022-09-25T17:21:10.888Z,83.95
2022-09-25T17:23:38.276Z,94.60
2022-09-25T17:26:12.554Z,71.10
2022-09-25T17:28:39.754Z,87.60
2022-09-25T17:31:15.781Z,62.17
2022-09-25T17:33:43.125Z,48.65
2022-09-25T17:36:11.890Z,44.78
2022-09-25T17:38:39.311Z,109.00
2022-09-25T17:41:14.055Z,105.93
2022-09-25T17:43:41.569Z,112.45
2022-09-25T17:46:09.461Z,107.25
2022-09-25T17:48:36.688Z,106.05
2022-09-25T17:51:18.056Z,86.95
2022-09-25T17:53:49.180Z,81.10
2022-09-25T17:56:17.061Z,84.47
2022-09-25T17:58:44.692Z,85.30
2022-09-25T18:01:19.897Z,75.93
2022-09-25T18:03:48.067Z,95.22
2022-09-25T18:06:15.918Z,109.63
2022-09-25T18:08:44.631Z,112.80
2022-09-25T18:11:13.185Z,113.93
2022-09-25T18:13:41.984Z,64.25
2022-09-25T18:16:32.840Z,46.00
2022-09-25T18:19:18.600Z,40.25
2022-09-25T18:22:04.067Z,33.92
2022-09-25T18:24:31.317Z,24.13
2022-09-25T18:26:59.993Z,17.95
2022-09-25T18:29:27.610Z,22.25
2022-09-25T18:31:55.258Z,24.60
2022-09-25T18:34:22.882Z,26.13
2022-09-25T18:36:50.026Z,17.83
2022-09-25T18:39:20.411Z,22.80
2022-09-25T18:41:50.462Z,41.25
2022-09-25T18:44:19.466Z,57.60
2022-09-25T18:46:46.869Z,37.05
2022-09-25T18:49:14.216Z,36.20
2022-09-25T18:51:41.395Z,65.72
2022-09-25T18:54:15.852Z,50.35
2022-09-25T18:56:43.301Z,46.05
2022-09-25T18:59:10.765Z,50.70
2022-09-25T19:01:39.774Z,46.20
2022-09-25T19:04:08.373Z,50.38
2022-09-25T19:06:35.913Z,46.90
2022-09-25T19:09:04.894Z,48.67
2022-09-25T19:11:32.583Z,52.40
2022-09-25T19:14:04.774Z,53.85
2022-09-25T19:16:38.138Z,43.45
2022-09-25T19:19:05.969Z,40.50
2022-09-25T19:21:33.501Z,58.28
2022-09-25T19:24:01.541Z,53.63
2022-09-25T19:26:29.194Z,53.70
2022-09-25T19:28:56.368Z,42.70
2022-09-25T19:31:27.897Z,42.95
2022-09-25T19:33:56.120Z,34.95
2022-09-25T19:36:26.556Z,36.03
2022-09-25T19:38:54.935Z,38.72
2022-09-25T19:41:26.415Z,29.88
2022-09-25T19:43:57.202Z,27.30
2022-09-25T19:46:26.084Z,34.35
2022-09-25T19:48:53.408Z,45.72
2022-09-25T19:51:22.643Z,45.08
2022-09-25T19:53:50.872Z,65.68
2022-09-25T19:56:19.510Z,70.32
2022-09-25T19:58:49.691Z,67.82
2022-09-25T20:01:20.418Z,45.00
2022-09-25T20:03:47.933Z,52.22
2022-09-25T20:06:16.065Z,42.22
2022-09-25T20:08:43.548Z,36.17
2022-09-25T20:11:22.261Z,29.23
2022-09-25T20:13:51.427Z,32.13
2022-09-25T20:16:21.767Z,36.05
2022-09-25T20:18:57.761Z,26.80
2022-09-25T20:21:26.743Z,25.80
2022-09-25T20:23:56.543Z,28.02
2022-09-25T20:26:24.752Z,28.05
2022-09-25T20:28:54.912Z,31.80
2022-09-25T20:31:22.432Z,26.25
2022-09-25T20:33:49.569Z,26.17
2022-09-25T20:36:18.162Z,34.92
2022-09-25T20:38:48.589Z,29.75
2022-09-25T20:41:15.614Z,30.08
2022-09-25T20:43:46.658Z,34.67
2022-09-25T20:46:14.420Z,38.45
2022-09-25T20:48:47.153Z,59.35
2022-09-25T20:51:17.044Z,66.65
2022-09-25T20:53:44.585Z,75.85
2022-09-25T20:56:15.737Z,61.72
2022-09-25T20:58:47.374Z,58.15
2022-09-25T21:01:19.663Z,44.85
2022-09-25T21:03:48.228Z,35.28
2022-09-25T21:06:18.189Z,38.90
2022-09-25T21:08:46.086Z,54.38
2022-09-25T21:11:13.928Z,58.65
2022-09-25T21:13:41.419Z,68.07
2022-09-25T21:16:11.133Z,66.95
2022-09-25T21:18:40.737Z,103.18
2022-09-25T21:21:13.856Z,95.78
2022-09-25T21:23:42.642Z,85.30
2022-09-25T21:26:14.126Z,53.15
2022-09-25T21:28:51.500Z,51.83
2022-09-25T21:31:21.741Z,62.13
2022-09-25T21:33:52.751Z,57.80
2022-09-25T21:36:20.861Z,60.45
2022-09-25T21:38:49.171Z,56.72
2022-09-25T21:41:18.706Z,71.95
2022-09-25T21:43:46.605Z,57.63
2022-09-25T21:46:18.567Z,52.00
2022-09-25T21:48:51.477Z,51.75
2022-09-25T21:51:21.179Z,54.67
2022-09-25T21:53:48.589Z,65.15
2022-09-25T21:56:19.426Z,75.80
2022-09-25T21:58:47.334Z,69.55
2022-09-25T22:01:26.491Z,59.22
2022-09-25T22:03:57.467Z,59.17
2022-09-25T22:06:42.177Z,58.83
2022-09-25T22:09:21.508Z,91.78
2022-09-25T22:11:49.452Z,53.72
2022-09-25T22:14:18.042Z,39.95
2022-09-25T22:16:47.759Z,42.13
2022-09-25T22:19:21.684Z,49.63
2022-09-25T22:21:50.388Z,66.25
2022-09-25T22:24:17.990Z,61.88
2022-09-25T22:26:47.154Z,64.80
2022-09-25T22:29:15.559Z,58.17
2022-09-25T22:31:45.478Z,45.97
2022-09-25T22:34:25.501Z,58.03
2022-09-25T22:36:58.647Z,54.00
2022-09-25T22:39:27.821Z,92.27
2022-09-25T22:41:55.830Z,67.15
2022-09-25T22:44:23.126Z,47.05
2022-09-25T22:46:50.674Z,47.70
2022-09-25T22:49:18.101Z,84.25
2022-09-25T22:51:45.091Z,83.53
2022-09-25T22:54:15.977Z,67.85
2022-09-25T22:56:43.926Z,57.22
2022-09-25T22:59:16.155Z,72.85
2022-09-25T23:01:51.846Z,63.92
2022-09-25T23:04:24.612Z,50.00
2022-09-25T23:06:52.459Z,40.80
2022-09-25T23:09:22.325Z,118.72
2022-09-25T23:11:49.746Z,62.90
2022-09-25T23:14:23.146Z,43.30
2022-09-25T23:16:52.231Z,91.75
2022-09-25T23:19:20.738Z,40.70
2022-09-25T23:21:48.828Z,39.60
2022-09-25T23:24:17.966Z,44.22
2022-09-25T23:26:45.893Z,40.75
2022-09-25T23:29:15.618Z,63.13
2022-09-25T23:31:43.208Z,53.67
2022-09-25T23:34:11.399Z,27.48
2022-09-25T23:36:38.853Z,23.65
2022-09-25T23:39:08.689Z,32.45
2022-09-25T23:41:38.841Z,27.27
2022-09-25T23:44:09.034Z,34.03
2022-09-25T23:46:39.833Z,72.25
2022-09-25T23:49:07.910Z,43.05
2022-09-25T23:51:35.743Z,68.78
2022-09-25T23:54:03.456Z,55.45
2022-09-25T23:56:33.156Z,63.22
2022-09-25T23:59:01.641Z,58.17
